Time;durP1;ratioP1;P1;durP2;ratioP2;P2;SDS_P1;SDS_P2;PMS_P1;PMS_P2;Temp;Humidity;BMP_temperature;BMP_pressure;BME280_temperature;BME280_humidity;BME280_pressure;Samples;Min_cycle;Max_cycle;Signal;HPM_P1;HPM_P2
2022/10/07 00:00:43;;;;;;;6.97;3.60;;;;;;;7.90;84.26;101530.81;5121323;28;20470;-67
2022/10/07 00:03:10;;;;;;;9.17;3.80;;;;;;;7.84;84.31;101528.50;5121975;28;20448;-67
2022/10/07 00:05:36;;;;;;;12.03;3.83;;;;;;;7.76;84.34;101520.13;5120310;28;20494;-67
2022/10/07 00:08:04;;;;;;;10.23;3.97;;;;;;;7.73;84.18;101524.69;5112287;28;20882;-67
2022/10/07 00:10:31;;;;;;;10.23;3.90;;;;;;;7.69;84.22;101525.81;5112698;28;20471;-66
2022/10/07 00:13:00;;;;;;;6.63;3.93;;;;;;;7.67;84.68;101518.88;5122242;28;20516;-65
2022/10/07 00:15:26;;;;;;;5.17;3.23;;;;;;;7.67;84.97;101521.53;5120403;28;20471;-66
2022/10/07 00:17:54;;;;;;;8.20;4.13;;;;;;;7.63;85.34;101518.19;5121014;28;20490;-65
2022/10/07 00:20:21;;;;;;;9.47;4.00;;;;;;;7.59;85.36;101515.81;5120808;28;20475;-66
2022/10/07 00:22:47;;;;;;;9.73;4.87;;;;;;;7.72;85.98;101516.78;5121900;28;20519;-65
2022/10/07 00:25:14;;;;;;;8.03;4.00;;;;;;;7.60;86.01;101509.53;5115674;28;20480;-65
2022/10/07 00:27:41;;;;;;;14.93;4.10;;;;;;;7.45;87.02;101514.81;5122249;28;20430;-65
2022/10/07 00:30:09;;;;;;;6.63;4.00;;;;;;;7.43;86.61;101510.50;5121350;28;20434;-65
2022/10/07 00:32:35;;;;;;;6.67;3.60;;;;;;;7.39;86.78;101511.66;5121228;28;20450;-65
2022/10/07 00:35:04;;;;;;;5.77;3.30;;;;;;;7.33;86.69;101504.88;5120651;28;20967;-66
2022/10/07 00:37:30;;;;;;;15.17;4.20;;;;;;;7.42;86.69;101501.69;5120771;28;20478;-66
2022/10/07 00:39:57;;;;;;;8.77;5.67;;;;;;;7.45;87.12;101492.69;5118400;28;20497;-66
2022/10/07 00:42:23;;;;;;;9.83;5.50;;;;;;;7.43;86.97;101492.75;5120615;28;20491;-66
2022/10/07 00:44:50;;;;;;;10.20;3.90;;;;;;;7.43;87.06;101498.09;5121031;28;20533;-66
2022/10/07 00:47:24;;;;;;;6.30;4.10;;;;;;;7.40;86.79;101492.09;5120476;28;20474;-66
2022/10/07 00:49:53;;;;;;;10.93;4.50;;;;;;;7.24;86.82;101485.00;5120392;28;20438;-66
2022/10/07 00:52:24;;;;;;;9.30;4.27;;;;;;;7.30;87.12;101489.94;5120523;28;20513;-66
2022/10/07 00:54:52;;;;;;;9.80;4.20;;;;;;;7.37;87.31;101494.91;5108639;28;20516;-66
2022/10/07 00:57:20;;;;;;;7.33;3.60;;;;;;;7.30;86.92;101486.44;5120577;28;20532;-66
2022/10/07 00:59:47;;;;;;;13.13;3.97;;;;;;;7.33;86.88;101489.78;5120088;28;20438;-66
2022/10/07 01:02:14;;;;;;;6.10;3.90;;;;;;;7.30;87.03;101481.09;5117073;28;20498;-68
2022/10/07 01:04:41;;;;;;;7.43;4.10;;;;;;;7.37;86.68;101481.63;5120425;28;20504;-67
2022/10/07 01:07:08;;;;;;;7.20;3.93;;;;;;;7.38;86.76;101488.63;5119862;28;20483;-67
2022/10/07 01:09:36;;;;;;;5.57;3.73;;;;;;;7.44;87.22;101474.97;5115826;28;20510;-67
2022/10/07 01:12:10;;;;;;;7.10;4.00;;;;;;;7.30;86.81;101473.13;5118700;28;20537;-67
2022/10/07 01:14:45;;;;;;;10.07;4.57;;;;;;;7.18;86.45;101474.69;5119915;28;20446;-67
2022/10/07 01:17:17;;;;;;;8.00;3.60;;;;;;;7.10;86.76;101468.94;5119045;28;20537;-68
2022/10/07 01:20:06;;;;;;;7.73;4.17;;;;;;;7.07;87.04;101463.84;5119470;28;20449;-67
2022/10/07 01:22:41;;;;;;;9.00;4.43;;;;;;;7.04;86.89;101462.19;5119131;28;20490;-67
2022/10/07 01:25:23;;;;;;;8.93;3.70;;;;;;;6.96;87.12;101452.00;5108967;28;20473;-67
2022/10/07 01:27:53;;;;;;;6.37;3.43;;;;;;;6.94;87.13;101450.38;5103845;28;20482;-68
2022/10/07 01:30:20;;;;;;;9.27;3.83;;;;;;;6.99;87.14;101435.00;5118778;28;20540;-68
2022/10/07 01:32:52;;;;;;;9.93;3.77;;;;;;;7.04;86.97;101440.06;5120285;28;20486;-67
2022/10/07 01:35:23;;;;;;;8.60;3.63;;;;;;;6.94;86.68;101442.38;5120034;28;20514;-67
2022/10/07 01:37:53;;;;;;;11.07;4.00;;;;;;;6.89;87.15;101437.34;5120645;28;20489;-67
2022/10/07 01:40:21;;;;;;;11.03;4.70;;;;;;;6.82;87.26;101433.31;5114900;28;20443;-66
2022/10/07 01:42:51;;;;;;;5.27;3.93;;;;;;;6.73;87.80;101432.03;5108399;28;20454;-66
2022/10/07 01:45:20;;;;;;;9.27;4.50;;;;;;;6.69;87.97;101438.47;5118836;28;20450;-65
2022/10/07 01:47:47;;;;;;;9.30;4.87;;;;;;;6.69;87.96;101427.84;5117617;28;20447;-65
2022/10/07 01:50:14;;;;;;;14.00;4.10;;;;;;;6.73;88.31;101416.06;5118849;28;20481;-66
2022/10/07 01:52:52;;;;;;;9.80;3.83;;;;;;;6.69;88.22;101424.34;5119417;28;20474;-66
2022/10/07 01:55:45;;;;;;;10.30;4.07;;;;;;;6.74;88.11;101419.63;5118615;28;21225;-66
2022/10/07 01:58:26;;;;;;;5.90;3.37;;;;;;;6.89;88.15;101421.41;5112641;28;20447;-66
2022/10/07 02:00:57;;;;;;;9.10;3.43;;;;;;;6.84;87.53;101415.50;5109983;28;20984;-66
2022/10/07 02:03:36;;;;;;;11.27;3.80;;;;;;;6.73;87.61;101420.56;5119604;28;20435;-66
2022/10/07 02:06:06;;;;;;;7.77;3.33;;;;;;;6.68;87.82;101409.31;5119015;28;20531;-67
2022/10/07 02:08:37;;;;;;;9.70;5.00;;;;;;;6.64;87.70;101403.31;5119595;28;21007;-67
2022/10/07 02:11:15;;;;;;;4.97;3.00;;;;;;;6.62;87.84;101410.53;5119545;28;20491;-67
2022/10/07 02:13:49;;;;;;;7.03;3.20;;;;;;;6.62;87.85;101407.88;5118885;28;21273;-66
2022/10/07 02:16:19;;;;;;;5.40;3.43;;;;;;;6.56;87.78;101401.13;5102185;28;20493;-68
2022/10/07 02:18:48;;;;;;;5.50;3.27;;;;;;;6.57;87.73;101401.97;5121894;28;20435;-68
2022/10/07 02:21:16;;;;;;;8.33;4.13;;;;;;;6.56;88.08;101395.81;5122920;28;20565;-67
2022/10/07 02:23:44;;;;;;;3.80;3.00;;;;;;;6.60;88.09;101386.69;5123555;28;20497;-66
2022/10/07 02:26:13;;;;;;;6.03;3.87;;;;;;;6.56;88.36;101385.16;5122867;28;20494;-67
2022/10/07 02:28:41;;;;;;;9.40;4.23;;;;;;;6.55;88.76;101382.59;5123079;28;20458;-66
2022/10/07 02:31:10;;;;;;;5.90;3.70;;;;;;;6.58;88.27;101383.28;5121772;28;20505;-66
2022/10/07 02:33:37;;;;;;;7.40;3.10;;;;;;;6.50;88.17;101379.34;5123593;28;20469;-66
2022/10/07 02:36:09;;;;;;;6.47;3.90;;;;;;;6.48;87.83;101368.81;5122333;28;20605;-66
2022/10/07 02:38:37;;;;;;;5.03;3.30;;;;;;;6.40;87.78;101363.91;5123705;28;20457;-66
2022/10/07 02:41:06;;;;;;;6.00;3.10;;;;;;;6.41;87.99;101365.63;5122415;28;20478;-66
2022/10/07 02:43:36;;;;;;;8.20;3.10;;;;;;;6.43;88.31;101360.22;5123000;28;20514;-66
2022/10/07 02:46:06;;;;;;;7.77;3.40;;;;;;;6.41;88.13;101356.81;5121907;28;20842;-66
2022/10/07 02:48:40;;;;;;;4.93;3.60;;;;;;;6.39;88.50;101358.69;5122279;28;20472;-67
2022/10/07 02:51:10;;;;;;;9.33;4.00;;;;;;;6.35;88.32;101358.03;5121680;28;20550;-67
2022/10/07 02:53:38;;;;;;;5.13;3.23;;;;;;;6.34;88.13;101356.28;5123009;28;20435;-67
2022/10/07 02:56:05;;;;;;;10.30;4.37;;;;;;;6.28;88.24;101353.13;5121980;28;20543;-67
2022/10/07 02:58:33;;;;;;;8.43;3.30;;;;;;;6.26;88.20;101341.72;5108536;28;20447;-67
2022/10/07 03:01:01;;;;;;;9.63;3.87;;;;;;;6.18;88.13;101342.13;5114120;28;20493;-67
2022/10/07 03:03:29;;;;;;;4.63;3.70;;;;;;;6.17;87.90;101348.41;5122280;28;20450;-66
2022/10/07 03:05:57;;;;;;;6.27;3.93;;;;;;;6.11;88.08;101349.63;5121361;28;20524;-66
2022/10/07 03:08:24;;;;;;;6.50;4.13;;;;;;;6.12;88.47;101338.03;5121864;28;20486;-66
2022/10/07 03:10:51;;;;;;;5.50;3.90;;;;;;;6.13;88.24;101336.25;5121485;28;20482;-66
2022/10/07 03:13:17;;;;;;;6.97;4.77;;;;;;;6.12;88.02;101342.50;5122076;28;20439;-66
2022/10/07 03:15:44;;;;;;;5.53;3.60;;;;;;;6.12;88.09;101331.88;5111534;28;20481;-66
2022/10/07 03:18:24;;;;;;;8.50;3.43;;;;;;;6.11;88.28;101332.81;5121295;28;20530;-66
2022/10/07 03:20:52;;;;;;;5.90;4.03;;;;;;;6.05;88.15;101334.00;5121899;28;20473;-67
2022/10/07 03:23:20;;;;;;;10.87;3.97;;;;;;;6.02;87.96;101334.19;5120731;28;20447;-67
2022/10/07 03:25:49;;;;;;;5.20;3.53;;;;;;;6.01;87.63;101330.69;5120725;28;20478;-67
2022/10/07 03:28:16;;;;;;;8.87;4.13;;;;;;;6.01;87.74;101325.38;5118701;28;20519;-67
2022/10/07 03:30:43;;;;;;;6.97;3.83;;;;;;;5.99;87.33;101324.59;5100491;28;20817;-68
2022/10/07 03:33:10;;;;;;;4.47;3.30;;;;;;;5.98;87.44;101319.38;5117683;28;20454;-68
2022/10/07 03:35:37;;;;;;;5.73;3.30;;;;;;;5.99;87.43;101313.13;5120947;28;20470;-68
2022/10/07 03:38:05;;;;;;;3.87;3.47;;;;;;;6.00;87.76;101312.16;5122536;28;20475;-68
2022/10/07 03:40:33;;;;;;;7.97;4.30;;;;;;;6.09;87.91;101311.66;5120619;28;20458;-66
2022/10/07 03:43:00;;;;;;;8.13;3.23;;;;;;;6.16;88.36;101309.50;5115930;28;20480;-66
2022/10/07 03:45:29;;;;;;;6.60;3.80;;;;;;;6.30;88.72;101311.38;5104737;28;20941;-66
2022/10/07 03:47:56;;;;;;;4.77;3.47;;;;;;;6.22;88.56;101314.50;5121592;28;20514;-66
2022/10/07 03:50:23;;;;;;;8.23;3.20;;;;;;;6.14;88.22;101306.09;5121388;28;20479;-66
2022/10/07 03:52:49;;;;;;;4.80;2.70;;;;;;;6.14;88.51;101309.59;5103329;28;21004;-66
2022/10/07 03:55:16;;;;;;;8.97;3.40;;;;;;;6.11;88.46;101306.25;5120717;28;20995;-66
2022/10/07 03:57:51;;;;;;;6.93;2.73;;;;;;;6.09;88.25;101316.97;5085092;28;20475;-66
2022/10/07 04:00:19;;;;;;;7.53;3.53;;;;;;;6.06;88.23;101305.66;5106906;28;20442;-67
2022/10/07 04:02:46;;;;;;;10.43;3.67;;;;;;;6.16;88.92;101309.50;5116577;28;20461;-66
2022/10/07 04:05:14;;;;;;;5.70;2.80;;;;;;;6.15;88.65;101306.00;5118895;28;20508;-66
2022/10/07 04:07:42;;;;;;;10.27;3.90;;;;;;;6.04;88.45;101303.09;5121576;28;20524;-66
2022/10/07 04:10:09;;;;;;;10.10;3.20;;;;;;;5.98;88.05;101296.31;5119847;28;20482;-66
2022/10/07 04:12:36;;;;;;;6.37;2.90;;;;;;;5.94;88.09;101292.09;5117133;28;20459;-67
2022/10/07 04:15:05;;;;;;;7.87;3.10;;;;;;;5.96;87.94;101284.09;5113967;28;20442;-66
2022/10/07 04:17:32;;;;;;;8.70;3.00;;;;;;;5.94;88.16;101292.09;5119664;28;20474;-66
2022/10/07 04:19:58;;;;;;;7.77;3.77;;;;;;;5.96;88.21;101286.75;5120678;28;20458;-66
2022/10/07 04:22:25;;;;;;;6.20;3.43;;;;;;;5.95;87.83;101285.84;5118708;28;20826;-66
2022/10/07 04:27:33;;;;;;;7.17;3.10;;;;;;;5.89;88.55;101280.88;5095580;28;20538;-66
2022/10/07 04:29:59;;;;;;;8.47;3.00;;;;;;;5.90;88.56;101290.53;5099380;28;20531;-65
2022/10/07 04:32:28;;;;;;;6.33;3.20;;;;;;;5.88;88.47;101284.47;5101716;28;20506;-65
2022/10/07 04:34:54;;;;;;;6.70;3.67;;;;;;;5.84;88.38;101274.97;5110476;28;20458;-66
2022/10/07 04:37:21;;;;;;;4.30;2.87;;;;;;;5.82;88.59;101274.22;5117546;28;20478;-67
2022/10/07 04:39:48;;;;;;;6.90;4.00;;;;;;;5.88;88.85;101276.50;5100681;28;20954;-67
2022/10/07 04:44:55;;;;;;;7.10;3.10;;;;;;;5.77;88.40;101268.31;5106222;28;20443;-67
2022/10/07 04:47:22;;;;;;;4.63;3.13;;;;;;;5.76;88.44;101269.22;5099510;28;20478;-67
2022/10/07 04:49:52;;;;;;;6.23;3.30;;;;;;;5.85;88.94;101269.59;5099255;28;20446;-68
2022/10/07 04:52:19;;;;;;;5.87;2.83;;;;;;;5.93;88.71;101269.16;5101292;28;20475;-67
2022/10/07 04:54:46;;;;;;;8.83;3.00;;;;;;;6.03;88.33;101270.38;5104623;28;20668;-68
2022/10/07 04:57:13;;;;;;;9.77;3.50;;;;;;;6.03;88.62;101269.53;5099188;28;20482;-68
2022/10/07 04:59:40;;;;;;;5.63;3.03;;;;;;;6.12;88.71;101258.38;5119344;28;20442;-67
2022/10/07 05:02:07;;;;;;;8.93;3.47;;;;;;;6.23;88.84;101260.41;5110373;28;20478;-68
2022/10/07 05:04:34;;;;;;;5.57;3.53;;;;;;;6.36;88.51;101256.13;5107590;28;20863;-70
2022/10/07 05:07:02;;;;;;;9.00;3.13;;;;;;;6.40;88.76;101260.31;5098342;28;20499;-66
2022/10/07 05:09:29;;;;;;;6.20;3.17;;;;;;;6.53;88.92;101252.50;5103097;28;20572;-66
2022/10/07 05:11:56;;;;;;;7.70;3.70;;;;;;;6.54;88.56;101253.34;5098916;28;20993;-66
2022/10/07 05:14:23;;;;;;;6.60;3.60;;;;;;;6.56;88.87;101254.09;5103869;28;20538;-66
2022/10/07 05:16:53;;;;;;;5.67;3.03;;;;;;;6.58;88.73;101249.59;5118538;28;20497;-66
2022/10/07 05:19:19;;;;;;;5.53;3.23;;;;;;;6.61;88.75;101265.31;5118593;28;20430;-69
2022/10/07 05:21:46;;;;;;;6.67;3.27;;;;;;;6.62;88.53;101255.56;5116238;28;20514;-68
2022/10/07 05:24:14;;;;;;;6.70;3.77;;;;;;;6.72;88.57;101248.75;5119370;28;20648;-69
2022/10/07 05:26:41;;;;;;;9.40;4.00;;;;;;;6.95;88.39;101255.34;5116531;28;20470;-68
2022/10/07 05:29:08;;;;;;;10.53;3.80;;;;;;;7.07;87.93;101256.41;5105318;28;20436;-68
2022/10/07 05:31:35;;;;;;;7.20;2.77;;;;;;;7.11;87.52;101248.13;5097531;28;20559;-68
2022/10/07 05:34:02;;;;;;;5.73;3.10;;;;;;;7.00;87.37;101250.63;5098722;28;20440;-68
2022/10/07 05:36:28;;;;;;;5.40;3.50;;;;;;;6.92;87.71;101248.41;5098037;28;20495;-68
2022/10/07 05:38:56;;;;;;;4.00;2.97;;;;;;;6.92;87.55;101247.56;5079432;28;20468;-68
2022/10/07 05:41:26;;;;;;;5.10;3.10;;;;;;;6.92;87.95;101248.41;5091775;28;20486;-68
2022/10/07 05:43:53;;;;;;;3.50;2.70;;;;;;;6.99;87.87;101243.56;5099422;28;20890;-68
2022/10/07 05:46:21;;;;;;;6.40;3.03;;;;;;;7.03;87.66;101247.78;5097343;28;20526;-68
2022/10/07 05:48:49;;;;;;;6.67;2.73;;;;;;;7.00;87.56;101247.09;5101753;28;20504;-68
2022/10/07 05:51:17;;;;;;;7.47;2.97;;;;;;;6.98;87.73;101253.38;5101179;28;20463;-66
2022/10/07 05:53:45;;;;;;;3.73;2.90;;;;;;;7.13;87.55;101243.59;5102157;28;20458;-67
2022/10/07 05:56:15;;;;;;;6.73;3.30;;;;;;;7.23;87.33;101240.38;5102323;28;20482;-67
2022/10/07 05:58:43;;;;;;;8.80;3.63;;;;;;;7.50;87.02;101235.16;5103098;28;20498;-67
2022/10/07 06:01:14;;;;;;;4.23;3.10;;;;;;;7.54;86.09;101240.16;5101941;28;20682;-67
2022/10/07 06:03:41;;;;;;;9.70;3.70;;;;;;;7.78;86.09;101231.59;5102810;28;20854;-67
2022/10/07 06:06:08;;;;;;;6.47;3.40;;;;;;;8.04;85.77;101226.38;5102144;28;20506;-67
2022/10/07 06:08:35;;;;;;;6.00;3.20;;;;;;;8.41;83.84;101231.94;5102658;28;20518;-67
2022/10/07 06:13:49;;;;;;;9.07;4.20;;;;;;;8.69;82.01;101220.28;5103169;28;20553;-67
2022/10/07 06:16:16;;;;;;;6.30;2.60;;;;;;;9.91;79.40;101220.59;5100996;28;20493;-67
2022/10/07 06:18:42;;;;;;;8.83;2.50;;;;;;;10.72;74.35;101210.97;5102257;28;20550;-67
2022/10/07 06:21:10;;;;;;;5.63;3.10;;;;;;;11.23;70.31;101223.13;5101021;28;20531;-67
2022/10/07 06:23:37;;;;;;;7.53;2.20;;;;;;;11.59;68.62;101220.28;5101573;28;20437;-67
2022/10/07 06:26:05;;;;;;;6.33;2.70;;;;;;;12.69;65.63;101221.06;5101458;28;20866;-67
2022/10/07 06:28:33;;;;;;;4.70;2.43;;;;;;;13.06;61.95;101220.59;5102610;28;20435;-68
2022/10/07 06:31:03;;;;;;;4.17;2.60;;;;;;;12.66;62.48;101218.66;5099320;28;20510;-68
2022/10/07 06:33:30;;;;;;;7.30;1.93;;;;;;;13.89;59.67;101215.16;5102847;28;20777;-68
2022/10/07 06:36:01;;;;;;;7.03;2.37;;;;;;;13.65;59.98;101210.13;5101673;28;20868;-68
2022/10/07 06:38:28;;;;;;;4.93;2.07;;;;;;;13.82;59.08;101216.66;5099608;28;20474;-68
2022/10/07 06:40:57;;;;;;;5.83;2.60;;;;;;;14.49;56.45;101221.28;5097410;28;20475;-69
2022/10/07 06:43:24;;;;;;;4.30;3.20;;;;;;;15.05;55.34;101225.03;5101997;28;20475;-69
2022/10/07 06:45:51;;;;;;;5.87;2.50;;;;;;;15.06;54.54;101224.03;5097383;28;20550;-70
2022/10/07 06:48:20;;;;;;;8.60;2.47;;;;;;;13.49;58.38;101226.78;5100845;28;20444;-69
2022/10/07 06:50:50;;;;;;;6.47;3.57;;;;;;;13.72;59.42;101228.25;5098952;28;20913;-69
2022/10/07 06:53:17;;;;;;;7.80;2.40;;;;;;;14.11;59.26;101219.41;5101489;28;20544;-70
2022/10/07 06:55:45;;;;;;;6.47;2.37;;;;;;;16.05;53.03;101222.59;5101403;28;20475;-70
2022/10/07 06:58:12;;;;;;;11.23;2.50;;;;;;;15.97;52.48;101222.50;5102091;28;20475;-69
2022/10/07 07:00:39;;;;;;;9.93;2.77;;;;;;;15.81;52.56;101228.56;5099516;28;20471;-70
2022/10/07 07:03:06;;;;;;;6.30;2.17;;;;;;;16.56;51.44;101221.06;5101135;28;20495;-69
2022/10/07 07:05:35;;;;;;;7.23;2.83;;;;;;;16.38;50.60;101217.53;5101103;28;20570;-69
2022/10/07 07:08:02;;;;;;;7.73;2.47;;;;;;;17.31;48.48;101217.88;5100884;28;20439;-70
2022/10/07 07:10:29;;;;;;;7.30;3.17;;;;;;;18.91;45.83;101210.63;5101114;28;20521;-70
2022/10/07 07:12:56;;;;;;;9.03;2.40;;;;;;;18.33;46.74;101215.19;5101745;28;20469;-70
2022/10/07 07:15:23;;;;;;;6.03;2.47;;;;;;;18.46;45.99;101208.41;5100483;28;20516;-70
2022/10/07 07:17:50;;;;;;;6.20;2.53;;;;;;;16.49;50.60;101208.34;5100222;28;20485;-70
2022/10/07 07:20:17;;;;;;;8.57;3.00;;;;;;;18.23;46.94;101214.50;5100410;28;20437;-70
2022/10/07 07:22:45;;;;;;;6.90;2.60;;;;;;;19.62;43.68;101210.75;5099261;28;20462;-72
2022/10/07 07:25:12;;;;;;;5.90;2.33;;;;;;;20.69;40.05;101212.78;5084035;28;20512;-73
2022/10/07 07:27:38;;;;;;;7.70;2.80;;;;;;;21.46;39.38;101211.69;5100914;28;20462;-73
2022/10/07 07:30:06;;;;;;;7.80;2.30;;;;;;;21.33;37.39;101204.13;5100359;28;21005;-72
2022/10/07 07:32:33;;;;;;;7.80;2.67;;;;;;;20.80;38.53;101211.53;5099727;28;20470;-73
2022/10/07 07:35:04;;;;;;;6.27;2.27;;;;;;;21.20;38.49;101204.81;5100131;28;20461;-73
2022/10/07 07:37:30;;;;;;;7.13;2.67;;;;;;;21.69;36.99;101208.00;5098166;28;20577;-73
2022/10/07 07:39:58;;;;;;;6.90;2.10;;;;;;;20.79;37.95;101202.50;5100158;28;20511;-73
2022/10/07 07:42:27;;;;;;;5.57;1.97;;;;;;;21.65;37.56;101203.94;5099231;28;20483;-73
2022/10/07 07:44:54;;;;;;;6.97;1.93;;;;;;;21.07;38.25;101199.16;5100135;28;20445;-73
2022/10/07 07:47:20;;;;;;;7.43;2.23;;;;;;;21.71;37.35;101205.91;5099199;28;21026;-73
2022/10/07 07:49:48;;;;;;;7.90;2.57;;;;;;;20.76;38.27;101205.59;5099515;28;20438;-73
2022/10/07 07:52:15;;;;;;;7.80;2.50;;;;;;;20.76;39.25;101204.75;5098980;28;20479;-72
2022/10/07 07:54:43;;;;;;;8.43;2.40;;;;;;;21.10;37.89;101206.13;5100948;28;20449;-73
2022/10/07 07:57:11;;;;;;;10.20;2.10;;;;;;;20.51;38.77;101210.38;5099807;28;20482;-72
2022/10/07 07:59:38;;;;;;;6.57;1.97;;;;;;;20.81;38.58;101205.88;5099629;28;20481;-72
2022/10/07 08:02:06;;;;;;;7.83;2.67;;;;;;;20.31;39.39;101200.00;5098686;28;20539;-72
2022/10/07 08:04:32;;;;;;;8.07;1.87;;;;;;;20.81;38.50;101199.59;5100307;28;20425;-73
2022/10/07 08:06:59;;;;;;;7.07;1.90;;;;;;;20.95;38.04;101197.94;5098578;28;20474;-77
2022/10/07 08:09:26;;;;;;;6.70;1.90;;;;;;;20.73;38.62;101202.38;5099865;28;20880;-73
2022/10/07 08:11:52;;;;;;;10.10;2.50;;;;;;;21.47;37.12;101194.31;5098219;28;21068;-72
2022/10/07 08:14:21;;;;;;;6.83;2.60;;;;;;;21.16;37.20;101194.47;5100087;28;20437;-72
2022/10/07 08:16:50;;;;;;;11.33;2.73;;;;;;;21.34;36.55;101191.41;5098022;28;21106;-73
2022/10/07 08:19:16;;;;;;;5.53;1.90;;;;;;;21.82;36.38;101197.22;5098950;28;20479;-73
2022/10/07 08:21:44;;;;;;;6.27;2.00;;;;;;;22.81;34.86;101196.56;5099059;28;20536;-73
2022/10/07 08:24:13;;;;;;;7.13;3.00;;;;;;;23.24;34.10;101195.59;5099517;28;20442;-72
2022/10/07 08:26:40;;;;;;;6.13;2.30;;;;;;;24.09;32.86;101196.16;5099194;28;20550;-73
2022/10/07 08:29:07;;;;;;;8.17;2.33;;;;;;;23.18;33.12;101182.78;5099983;28;20443;-73
2022/10/07 08:31:35;;;;;;;6.23;2.47;;;;;;;22.54;34.56;101179.16;5098544;28;20470;-73
2022/10/07 08:34:03;;;;;;;6.50;2.07;;;;;;;23.44;33.77;101184.78;5099748;28;20474;-73
2022/10/07 08:36:31;;;;;;;6.33;1.80;;;;;;;23.25;32.92;101183.66;5096790;28;20911;-72
2022/10/07 08:38:58;;;;;;;5.83;2.10;;;;;;;22.77;34.03;101183.50;5098497;28;20467;-73
2022/10/07 08:41:36;;;;;;;7.07;2.27;;;;;;;23.48;33.25;101180.59;5086588;28;20502;-73
2022/10/07 08:44:11;;;;;;;5.20;2.27;;;;;;;22.50;34.88;101175.97;5099384;28;20437;-73
2022/10/07 08:46:45;;;;;;;6.57;2.00;;;;;;;22.03;35.80;101173.81;5097314;28;20521;-73
2022/10/07 08:49:14;;;;;;;5.77;2.10;;;;;;;22.23;35.41;101174.00;5099214;28;20434;-73
2022/10/07 08:51:45;;;;;;;8.80;2.60;;;;;;;22.78;35.01;101166.13;5097225;28;20477;-73
2022/10/07 08:54:14;;;;;;;7.60;2.30;;;;;;;21.78;36.43;101164.13;5099064;28;20438;-73
2022/10/07 08:56:41;;;;;;;7.17;2.70;;;;;;;22.46;35.87;101158.31;5098358;28;20472;-73
2022/10/07 08:59:16;;;;;;;11.20;2.10;;;;;;;21.91;36.15;101155.28;5097856;28;20504;-73
2022/10/07 09:01:53;;;;;;;6.97;2.40;;;;;;;23.00;34.41;101155.97;5097193;28;20727;-73
2022/10/07 09:04:28;;;;;;;6.43;2.40;;;;;;;22.88;34.08;101144.78;5099569;28;20585;-73
2022/10/07 09:06:59;;;;;;;5.80;2.90;;;;;;;22.45;34.97;101140.28;5097717;28;20538;-73
2022/10/07 09:09:30;;;;;;;6.17;2.43;;;;;;;21.79;36.75;101132.31;5099183;28;20485;-72
2022/10/07 09:11:57;;;;;;;6.67;2.47;;;;;;;22.23;35.48;101128.53;5098923;28;20489;-72
2022/10/07 09:14:28;;;;;;;10.20;2.60;;;;;;;21.46;36.99;101130.06;5098132;28;20451;-71
2022/10/07 09:17:00;;;;;;;5.00;2.30;;;;;;;22.24;36.07;101123.94;5096297;28;20486;-72
2022/10/07 09:19:30;;;;;;;6.00;2.00;;;;;;;22.23;36.23;101124.97;5097867;28;20477;-72
2022/10/07 09:22:01;;;;;;;6.47;2.20;;;;;;;22.05;36.27;101131.75;5098238;28;20534;-72
2022/10/07 09:24:30;;;;;;;10.17;2.57;;;;;;;22.83;34.74;101139.06;5106141;28;20447;-72
2022/10/07 09:26:59;;;;;;;6.60;2.43;;;;;;;21.80;37.27;101134.84;5104994;28;20715;-72
2022/10/07 09:29:28;;;;;;;12.43;3.50;;;;;;;20.90;38.85;101119.69;5104987;28;20433;-72
2022/10/07 09:31:56;;;;;;;9.90;2.70;;;;;;;22.07;37.04;101126.94;5104619;28;20497;-72
2022/10/07 09:34:25;;;;;;;4.63;1.90;;;;;;;22.73;36.57;101129.38;5105655;28;20871;-72
2022/10/07 09:37:19;;;;;;;6.10;2.10;;;;;;;21.28;39.73;101119.53;5103496;28;20478;-72
2022/10/07 09:39:47;;;;;;;6.60;2.00;;;;;;;21.70;37.93;101130.72;5068472;28;20864;-72
2022/10/07 09:42:29;;;;;;;8.50;2.33;;;;;;;21.46;39.00;101116.47;5104948;28;20478;-72
2022/10/07 09:44:58;;;;;;;8.20;2.40;;;;;;;21.39;37.69;101107.34;5100141;28;20446;-72
2022/10/07 09:47:29;;;;;;;9.17;3.00;;;;;;;21.90;37.46;101104.56;5104396;28;20508;-71
2022/10/07 09:49:58;;;;;;;8.20;2.27;;;;;;;21.07;39.07;101104.00;5104759;28;20445;-73
2022/10/07 09:52:26;;;;;;;9.00;2.73;;;;;;;22.38;37.47;101102.09;5103835;27;20504;-73
2022/10/07 09:54:54;;;;;;;9.00;2.30;;;;;;;21.87;36.82;101104.13;5105351;28;20759;-72
2022/10/07 09:57:27;;;;;;;8.03;2.30;;;;;;;21.41;37.40;101102.56;5104662;28;20481;-72
2022/10/07 10:00:17;;;;;;;5.77;1.73;;;;;;;20.97;38.97;101096.16;5105095;28;20508;-72
2022/10/07 10:02:48;;;;;;;10.33;2.00;;;;;;;22.30;36.98;101099.50;5090878;28;21044;-72
2022/10/07 10:05:25;;;;;;;11.07;2.93;;;;;;;22.51;36.29;101092.31;5105303;28;20484;-72
2022/10/07 10:08:00;;;;;;;8.87;2.10;;;;;;;23.43;36.23;101093.03;5105289;28;20461;-73
2022/10/07 10:10:29;;;;;;;6.77;1.80;;;;;;;23.00;34.98;101093.25;5104881;28;20461;-74
2022/10/07 10:12:57;;;;;;;5.63;1.70;;;;;;;22.46;36.48;101089.34;5105154;28;20458;-72
2022/10/07 10:15:30;;;;;;;6.07;1.70;;;;;;;23.35;35.50;101085.03;5105345;28;20470;-73
2022/10/07 10:17:58;;;;;;;8.33;2.40;;;;;;;23.59;34.72;101084.50;5112944;28;20479;-73
2022/10/07 10:20:29;;;;;;;7.47;2.00;;;;;;;22.28;37.24;101078.97;5104646;27;20535;-73
2022/10/07 10:22:56;;;;;;;7.70;1.67;;;;;;;22.02;36.25;101076.84;5106050;28;20504;-73
2022/10/07 10:28:22;;;;;;;3.37;1.30;;;;;;;22.68;35.54;101074.63;5105199;28;20496;-72
2022/10/07 10:30:53;;;;;;;7.73;1.60;;;;;;;23.76;34.35;101065.81;5103929;28;20465;-72
2022/10/07 10:33:26;;;;;;;11.00;2.60;;;;;;;23.33;35.82;101068.03;5103515;28;20614;-73
2022/10/07 10:35:56;;;;;;;10.17;2.97;;;;;;;23.38;34.78;101065.53;5080486;28;21025;-73
2022/10/07 10:38:32;;;;;;;9.10;2.30;;;;;;;23.98;33.81;101047.38;5098733;28;20515;-73
2022/10/07 10:41:04;;;;;;;12.40;2.40;;;;;;;23.77;34.29;101042.09;5100622;28;20526;-73
2022/10/07 10:43:35;;;;;;;11.77;1.93;;;;;;;22.19;36.83;101040.94;5101091;28;20450;-72
2022/10/07 10:46:20;;;;;;;6.97;2.10;;;;;;;22.28;35.98;101030.75;5100826;28;20467;-72
2022/10/07 10:48:54;;;;;;;9.33;2.10;;;;;;;22.49;36.18;101037.19;5101668;28;20446;-72
2022/10/07 10:51:33;;;;;;;13.63;2.17;;;;;;;23.07;36.06;101035.00;5100523;28;20478;-73
2022/10/07 10:54:10;;;;;;;7.93;1.90;;;;;;;22.46;35.44;101021.22;5100680;28;20751;-70
2022/10/07 10:56:42;;;;;;;11.40;1.60;;;;;;;22.34;36.26;101026.38;5101021;28;20476;-70
2022/10/07 10:59:21;;;;;;;11.20;2.10;;;;;;;22.17;37.70;101032.13;5100969;28;20477;-70
2022/10/07 11:01:52;;;;;;;7.13;2.60;;;;;;;23.32;36.38;101020.81;5099855;28;20467;-70
2022/10/07 11:04:26;;;;;;;10.20;1.93;;;;;;;24.63;33.06;101013.88;5102263;28;20702;-70
2022/10/07 11:06:57;;;;;;;7.20;1.80;;;;;;;23.94;34.92;101004.31;5100640;28;20633;-70
2022/10/07 11:09:31;;;;;;;15.47;1.97;;;;;;;24.05;34.15;101004.50;5100177;28;20506;-70
2022/10/07 11:12:02;;;;;;;6.27;2.00;;;;;;;24.25;33.63;100993.56;5099166;28;20505;-70
2022/10/07 11:14:30;;;;;;;7.17;2.27;;;;;;;22.70;36.24;100995.38;5098074;28;20454;-70
2022/10/07 11:17:01;;;;;;;6.77;1.60;;;;;;;22.94;35.46;100994.00;5099282;28;20492;-70
2022/10/07 11:19:33;;;;;;;7.53;2.00;;;;;;;22.42;36.60;100995.44;5100294;28;20962;-70
2022/10/07 11:22:01;;;;;;;6.03;1.97;;;;;;;22.24;36.31;100974.13;5092798;28;20537;-71
2022/10/07 11:24:30;;;;;;;4.60;1.53;;;;;;;22.11;36.85;100967.53;5100797;28;20945;-70
2022/10/07 11:26:59;;;;;;;10.63;1.73;;;;;;;24.16;33.86;100972.13;5099750;28;20478;-71
2022/10/07 11:29:30;;;;;;;7.67;1.67;;;;;;;23.94;33.99;100977.84;5100235;28;20439;-71
2022/10/07 11:32:02;;;;;;;4.67;1.70;;;;;;;23.90;34.53;100965.66;5100062;28;20863;-72
2022/10/07 11:34:37;;;;;;;4.30;1.60;;;;;;;23.37;35.51;100961.00;5100780;28;20465;-71
2022/10/07 11:37:08;;;;;;;10.37;1.97;;;;;;;22.81;36.75;100958.50;5099347;28;20545;-71
2022/10/07 11:39:37;;;;;;;6.67;1.80;;;;;;;22.88;36.02;100953.91;5100429;28;20481;-70
2022/10/07 11:42:08;;;;;;;9.00;1.87;;;;;;;21.94;37.76;100947.97;5099331;28;20478;-70
2022/10/07 11:44:40;;;;;;;5.67;1.97;;;;;;;21.88;37.54;100942.47;5100449;28;20469;-71
2022/10/07 11:47:11;;;;;;;7.50;1.93;;;;;;;22.34;36.91;100944.66;5099366;28;20512;-71
2022/10/07 11:49:42;;;;;;;8.30;2.30;;;;;;;20.62;39.92;100926.56;5099230;28;20445;-71